Time;durP1;ratioP1;P1;durP2;ratioP2;P2;SDS_P1;SDS_P2;PMS_P1;PMS_P2;Temp;Humidity;BMP_temperature;BMP_pressure;BME280_temperature;BME280_humidity;BME280_pressure;Samples;Min_cycle;Max_cycle;Signal;HPM_P1;HPM_P2
2022/10/31 00:00:49;;;;;;;12.02;6.57;;;15.00;85.30;;;;;;4896689;29;20480;-30
2022/10/31 00:03:15;;;;;;;8.27;6.28;;;15.00;85.40;;;;;;4896791;29;20024;-28
2022/10/31 00:05:45;;;;;;;9.82;5.78;;;14.90;85.30;;;;;;4896844;29;20021;-29
2022/10/31 00:08:11;;;;;;;9.15;6.47;;;14.90;85.30;;;;;;4896667;29;20032;-29
2022/10/31 00:10:41;;;;;;;9.13;5.90;;;14.90;85.30;;;;;;4896693;29;20036;-30
2022/10/31 00:13:07;;;;;;;8.90;5.70;;;14.90;85.30;;;;;;4896757;29;20047;-32
2022/10/31 00:15:37;;;;;;;10.57;6.18;;;14.80;85.30;;;;;;4896689;29;20050;-34
2022/10/31 00:18:04;;;;;;;10.18;6.28;;;14.80;85.30;;;;;;4896757;29;20017;-29
2022/10/31 00:20:30;;;;;;;11.30;6.47;;;14.70;85.30;;;;;;4896630;29;20438;-29
2022/10/31 00:23:00;;;;;;;7.82;6.13;;;14.70;85.30;;;;;;4896570;29;20028;-29
2022/10/31 00:25:27;;;;;;;10.23;6.40;;;14.70;85.40;;;;;;4896483;29;20029;-30
2022/10/31 00:27:52;;;;;;;9.95;6.80;;;14.70;85.40;;;;;;4896220;29;20020;-28
2022/10/31 00:30:18;;;;;;;11.70;6.47;;;14.70;85.40;;;;;;4879444;29;20080;-28
2022/10/31 00:32:44;;;;;;;12.88;7.35;;;14.70;85.50;;;;;;4896351;29;20025;-35
2022/10/31 00:35:09;;;;;;;9.80;6.47;;;14.70;85.50;;;;;;4896328;29;20469;-33
2022/10/31 00:37:35;;;;;;;9.57;6.30;;;14.60;85.40;;;;;;4896431;29;20025;-29
2022/10/31 00:40:00;;;;;;;8.95;6.65;;;14.70;85.40;;;;;;4896485;29;20482;-28
2022/10/31 00:42:26;;;;;;;8.90;6.28;;;14.70;85.50;;;;;;4896392;29;20028;-31
2022/10/31 00:44:51;;;;;;;10.50;6.10;;;14.70;85.50;;;;;;4896419;29;20032;-28
2022/10/31 00:47:17;;;;;;;8.90;5.80;;;14.70;85.50;;;;;;4896316;29;20028;-28
2022/10/31 00:49:43;;;;;;;9.88;6.25;;;14.60;85.40;;;;;;4896271;29;20029;-30
2022/10/31 00:52:08;;;;;;;8.60;6.05;;;14.60;85.40;;;;;;4896353;29;20031;-31
2022/10/31 00:54:34;;;;;;;9.18;6.28;;;14.60;86.00;;;;;;4896055;29;20540;-28
2022/10/31 00:56:59;;;;;;;11.57;6.57;;;14.70;85.40;;;;;;4896089;29;20130;-31
2022/10/31 00:59:25;;;;;;;9.02;6.00;;;14.70;85.40;;;;;;4895738;29;20044;-35
2022/10/31 01:01:50;;;;;;;10.85;6.82;;;14.70;85.40;;;;;;4896278;29;20076;-35
2022/10/31 01:04:16;;;;;;;11.02;6.75;;;14.70;85.40;;;;;;4896030;29;20033;-34
2022/10/31 01:06:41;;;;;;;10.52;6.68;;;14.60;85.30;;;;;;4896173;29;20035;-30
2022/10/31 01:09:07;;;;;;;11.57;6.70;;;14.60;85.40;;;;;;4895911;29;20036;-32
2022/10/31 01:11:33;;;;;;;10.07;6.70;;;14.60;85.40;;;;;;4896064;29;20033;-30
2022/10/31 01:13:58;;;;;;;12.32;6.57;;;14.60;85.40;;;;;;4896147;29;20572;-28
2022/10/31 01:16:27;;;;;;;12.10;7.03;;;14.60;85.50;;;;;;4896074;29;20457;-28
2022/10/31 01:18:53;;;;;;;9.88;6.68;;;14.60;85.60;;;;;;4896130;29;20025;-32
2022/10/31 01:21:24;;;;;;;9.35;5.95;;;14.50;85.50;;;;;;4895999;29;20031;-29
2022/10/31 01:23:50;;;;;;;8.70;6.35;;;14.50;85.50;;;;;;4896215;29;20043;-30
2022/10/31 01:26:19;;;;;;;9.35;6.28;;;14.50;85.50;;;;;;4896080;29;20033;-29
2022/10/31 01:28:51;;;;;;;9.13;6.10;;;14.60;85.60;;;;;;4896019;29;20036;-28
2022/10/31 01:31:18;;;;;;;10.55;6.78;;;14.50;85.50;;;;;;4895865;29;20032;-37
2022/10/31 01:33:44;;;;;;;12.10;6.10;;;14.50;85.50;;;;;;4895963;29;20133;-29
2022/10/31 01:36:16;;;;;;;8.38;6.38;;;14.50;85.50;;;;;;4895851;29;20038;-31
2022/10/31 01:38:42;;;;;;;9.73;6.57;;;14.40;85.50;;;;;;4896864;29;20028;-28
2022/10/31 01:41:10;;;;;;;8.25;6.18;;;14.40;85.50;;;;;;4899821;29;20496;-27
2022/10/31 01:43:49;;;;;;;8.90;6.03;;;14.40;85.50;;;;;;4899730;29;20040;-27
2022/10/31 01:46:37;;;;;;;8.45;5.85;;;14.40;85.50;;;;;;4899969;29;20033;-28
2022/10/31 01:49:08;;;;;;;8.73;6.18;;;14.40;85.50;;;;;;4899669;29;20063;-39
2022/10/31 01:51:38;;;;;;;9.13;6.38;;;14.30;85.60;;;;;;4899639;29;20029;-30
2022/10/31 01:54:11;;;;;;;9.82;6.53;;;14.30;85.70;;;;;;4899415;29;20092;-29
2022/10/31 01:56:42;;;;;;;10.50;6.35;;;14.20;85.70;;;;;;4899598;29;20079;-28
2022/10/31 01:59:12;;;;;;;9.38;6.65;;;14.20;85.80;;;;;;4899449;29;20020;-35
2022/10/31 02:01:38;;;;;;;10.95;6.85;;;14.20;85.80;;;;;;4899230;29;20037;-29
2022/10/31 02:04:05;;;;;;;8.80;6.22;;;14.10;85.80;;;;;;4899384;29;20033;-28
2022/10/31 02:06:38;;;;;;;11.20;6.40;;;14.10;85.80;;;;;;4899298;29;20032;-29
2022/10/31 02:09:06;;;;;;;9.73;6.68;;;14.10;85.90;;;;;;4899447;29;20429;-31
2022/10/31 02:11:34;;;;;;;7.97;6.50;;;14.10;85.90;;;;;;4899353;29;20043;-36
2022/10/31 02:14:01;;;;;;;10.40;6.82;;;14.10;85.90;;;;;;4899236;29;20064;-28
2022/10/31 02:16:26;;;;;;;12.52;6.20;;;14.10;85.90;;;;;;4899148;29;20047;-30
2022/10/31 02:18:52;;;;;;;8.85;6.53;;;14.00;86.00;;;;;;4899129;29;20029;-27
2022/10/31 02:21:44;;;;;;;9.57;6.40;;;14.00;86.00;;;;;;4898952;29;20035;-27
2022/10/31 02:24:28;;;;;;;11.10;6.38;;;14.00;86.00;;;;;;4898964;29;20036;-35
2022/10/31 02:27:07;;;;;;;7.22;5.80;;;13.90;86.00;;;;;;4898911;29;20029;-28
2022/10/31 02:29:35;;;;;;;8.90;5.97;;;13.90;86.10;;;;;;4898748;29;20040;-28
2022/10/31 02:32:24;;;;;;;7.72;6.13;;;13.90;86.20;;;;;;4898706;29;20028;-29
2022/10/31 02:35:25;;;;;;;8.68;6.25;;;13.90;86.10;;;;;;4893360;29;20434;-29
2022/10/31 02:38:31;;;;;;;10.63;6.85;;;13.80;86.00;;;;;;4883658;29;20037;-32
2022/10/31 02:41:08;;;;;;;8.95;6.15;;;13.70;86.10;;;;;;4893347;29;20045;-29
2022/10/31 02:43:49;;;;;;;11.63;6.72;;;13.70;86.20;;;;;;4898758;29;20028;-29
2022/10/31 02:46:43;;;;;;;8.70;6.38;;;13.60;86.30;;;;;;4898669;29;20037;-29
2022/10/31 02:49:24;;;;;;;9.82;6.30;;;13.60;86.40;;;;;;4898240;29;20032;-28
2022/10/31 02:51:50;;;;;;;11.55;6.57;;;13.60;86.40;;;;;;4898661;29;20029;-28
2022/10/31 02:54:22;;;;;;;8.38;6.60;;;13.60;86.40;;;;;;4898738;29;20029;-28
2022/10/31 02:56:50;;;;;;;9.20;6.65;;;13.50;86.40;;;;;;4898522;29;20433;-28
2022/10/31 02:59:17;;;;;;;8.48;6.20;;;13.50;86.40;;;;;;4898379;29;20020;-34
2022/10/31 03:01:57;;;;;;;10.63;6.60;;;13.50;86.40;;;;;;4898222;29;20068;-30
2022/10/31 03:04:31;;;;;;;11.02;6.32;;;13.50;86.50;;;;;;4898338;29;20037;-28
2022/10/31 03:07:02;;;;;;;9.43;6.88;;;13.50;86.50;;;;;;4898279;29;20537;-29
2022/10/31 03:09:54;;;;;;;8.35;6.78;;;13.40;86.40;;;;;;4898149;29;20377;-29
2022/10/31 03:12:25;;;;;;;10.63;6.78;;;13.40;86.50;;;;;;4896104;29;20349;-27
2022/10/31 03:15:11;;;;;;;8.27;6.40;;;13.30;86.50;;;;;;4898003;29;20045;-30
2022/10/31 03:17:49;;;;;;;8.63;6.70;;;13.30;86.50;;;;;;4898057;29;20498;-42
2022/10/31 03:20:19;;;;;;;10.32;6.97;;;13.20;86.60;;;;;;4898055;29;20392;-37
2022/10/31 03:22:46;;;;;;;9.13;7.20;;;13.20;86.70;;;;;;4898096;29;20036;-37
2022/10/31 03:25:12;;;;;;;9.02;6.63;;;13.20;87.30;;;;;;4898142;29;20461;-39
2022/10/31 03:27:41;;;;;;;7.82;6.68;;;13.20;86.80;;;;;;4898011;29;20032;-38
2022/10/31 03:30:08;;;;;;;11.88;7.00;;;13.10;86.80;;;;;;4897983;29;20051;-40
2022/10/31 03:32:44;;;;;;;10.82;7.05;;;13.10;86.90;;;;;;4897861;29;20041;-41
2022/10/31 03:35:13;;;;;;;12.60;7.50;;;13.10;86.80;;;;;;4898058;29;20036;-47
2022/10/31 03:37:40;;;;;;;9.73;6.50;;;13.00;86.90;;;;;;4881330;29;20164;-40
2022/10/31 03:40:08;;;;;;;10.43;6.60;;;13.00;86.90;;;;;;4897836;29;20409;-46
2022/10/31 03:42:39;;;;;;;9.13;6.90;;;13.00;86.90;;;;;;4897783;29;20035;-42
2022/10/31 03:45:11;;;;;;;9.30;7.20;;;13.00;86.90;;;;;;4897653;29;20373;-40
2022/10/31 03:47:38;;;;;;;8.10;6.88;;;13.00;86.90;;;;;;4897593;29;20036;-41
2022/10/31 03:50:07;;;;;;;8.90;6.85;;;13.00;86.90;;;;;;4897644;29;20037;-41
2022/10/31 03:52:51;;;;;;;8.65;6.68;;;12.90;86.90;;;;;;4897599;29;20115;-38
2022/10/31 03:55:30;;;;;;;9.15;6.65;;;12.90;86.90;;;;;;4897579;29;20156;-34
2022/10/31 03:58:10;;;;;;;12.57;6.53;;;12.80;86.80;;;;;;4897603;29;20025;-34
2022/10/31 04:00:40;;;;;;;9.70;6.90;;;12.80;86.80;;;;;;4897220;29;20104;-34
2022/10/31 04:03:17;;;;;;;10.90;6.95;;;12.80;86.90;;;;;;4896947;29;20029;-34
2022/10/31 04:05:47;;;;;;;11.02;7.38;;;12.70;86.90;;;;;;4897431;29;20496;-35
2022/10/31 04:08:17;;;;;;;9.50;7.05;;;12.70;86.90;;;;;;4897305;29;20028;-35
2022/10/31 04:10:45;;;;;;;11.52;6.85;;;12.70;87.00;;;;;;4897362;29;20040;-35
2022/10/31 04:13:15;;;;;;;9.23;6.80;;;12.70;87.00;;;;;;4896996;29;20047;-33
2022/10/31 04:15:43;;;;;;;10.75;7.20;;;12.70;87.10;;;;;;4897334;29;20032;-34
2022/10/31 04:18:08;;;;;;;9.45;7.25;;;12.60;87.10;;;;;;4897652;29;20484;-35
2022/10/31 04:20:38;;;;;;;10.20;7.00;;;12.60;87.10;;;;;;4897549;29;20040;-33
2022/10/31 04:23:04;;;;;;;9.52;7.15;;;12.60;87.10;;;;;;4897798;29;20029;-33
2022/10/31 04:25:30;;;;;;;10.50;7.13;;;12.60;87.20;;;;;;4897403;29;20111;-34
2022/10/31 04:27:56;;;;;;;9.75;7.25;;;12.60;87.20;;;;;;4897640;29;20132;-37
2022/10/31 04:30:22;;;;;;;12.38;7.70;;;12.60;87.20;;;;;;4897599;29;20083;-34
2022/10/31 04:32:47;;;;;;;9.57;7.18;;;12.60;87.30;;;;;;4880699;29;20091;-35
2022/10/31 04:35:13;;;;;;;11.40;7.28;;;12.60;87.30;;;;;;4897487;29;20028;-33
2022/10/31 04:37:39;;;;;;;11.80;8.00;;;12.50;87.20;;;;;;4897353;29;20033;-34
2022/10/31 04:40:05;;;;;;;10.95;7.25;;;12.50;87.30;;;;;;4897252;29;20017;-34
2022/10/31 04:42:31;;;;;;;11.10;8.52;;;12.50;87.30;;;;;;4897267;29;20111;-34
2022/10/31 04:44:56;;;;;;;9.35;7.38;;;12.50;87.30;;;;;;4897326;29;20124;-34
2022/10/31 04:47:22;;;;;;;11.18;7.90;;;12.50;87.30;;;;;;4897085;29;20492;-35
2022/10/31 04:49:47;;;;;;;9.25;7.28;;;12.50;87.30;;;;;;4897153;29;20157;-34
2022/10/31 04:52:14;;;;;;;9.77;7.63;;;12.50;87.30;;;;;;4897141;29;20124;-35
2022/10/31 04:54:39;;;;;;;11.18;8.07;;;12.50;87.30;;;;;;4880237;29;20028;-34
2022/10/31 04:57:06;;;;;;;11.23;7.38;;;12.50;87.40;;;;;;4897135;29;20076;-35
2022/10/31 04:59:32;;;;;;;10.88;8.13;;;12.60;87.40;;;;;;4879817;29;20044;-35
2022/10/31 05:01:57;;;;;;;12.35;7.82;;;12.60;87.40;;;;;;4896795;29;20028;-35
2022/10/31 05:04:23;;;;;;;11.82;8.07;;;12.60;87.30;;;;;;4896689;29;20107;-34
2022/10/31 05:06:48;;;;;;;11.48;7.45;;;12.50;87.30;;;;;;4896692;29;20097;-34
2022/10/31 05:09:14;;;;;;;12.23;7.75;;;12.50;87.30;;;;;;4896861;29;20028;-34
2022/10/31 05:11:39;;;;;;;13.75;7.75;;;12.50;87.30;;;;;;4880076;29;20511;-35
2022/10/31 05:14:05;;;;;;;10.70;8.18;;;12.50;87.40;;;;;;4900105;29;20088;-34
2022/10/31 05:16:30;;;;;;;11.20;8.23;;;12.50;87.30;;;;;;4900890;29;20029;-36
2022/10/31 05:18:56;;;;;;;12.10;8.35;;;12.40;87.40;;;;;;4900622;29;20032;-35
2022/10/31 05:21:22;;;;;;;12.32;8.40;;;12.40;87.50;;;;;;4900551;29;20029;-38
2022/10/31 05:23:47;;;;;;;10.98;8.05;;;12.40;87.50;;;;;;4900707;29;20029;-36
2022/10/31 05:26:13;;;;;;;11.18;8.25;;;12.40;87.50;;;;;;4900468;29;20514;-39
2022/10/31 05:28:38;;;;;;;11.75;8.48;;;12.40;87.50;;;;;;4900279;29;20025;-34
2022/10/31 05:31:04;;;;;;;13.35;9.02;;;12.40;87.60;;;;;;4900208;29;20036;-34
2022/10/31 05:33:29;;;;;;;12.70;8.98;;;12.40;87.50;;;;;;4900098;29;20526;-36
2022/10/31 05:35:55;;;;;;;13.15;8.73;;;12.40;87.50;;;;;;4900112;29;20032;-34
2022/10/31 05:38:20;;;;;;;12.55;8.80;;;12.50;87.60;;;;;;4883430;29;20029;-36
2022/10/31 05:40:46;;;;;;;14.68;9.15;;;12.50;87.60;;;;;;4900063;29;20063;-34
2022/10/31 05:43:12;;;;;;;14.60;9.50;;;12.50;87.60;;;;;;4899893;29;20389;-35
2022/10/31 05:45:37;;;;;;;13.13;9.23;;;12.50;87.60;;;;;;4899870;29;20508;-33
2022/10/31 05:48:03;;;;;;;15.55;10.85;;;12.60;87.60;;;;;;4899880;29;20441;-34
2022/10/31 05:50:30;;;;;;;19.65;12.30;;;12.70;87.70;;;;;;4899744;29;20040;-35
2022/10/31 05:53:02;;;;;;;18.13;12.50;;;12.70;87.70;;;;;;4899696;29;20065;-35
2022/10/31 05:55:29;;;;;;;15.23;11.32;;;12.70;87.70;;;;;;4899487;29;20039;-34
2022/10/31 05:57:55;;;;;;;13.95;10.32;;;12.70;87.60;;;;;;4899630;29;20036;-34
2022/10/31 06:00:22;;;;;;;14.27;10.10;;;12.70;87.60;;;;;;4899269;29;20059;-35
2022/10/31 06:02:48;;;;;;;16.40;9.10;;;12.80;87.60;;;;;;4899573;29;20087;-34
2022/10/31 06:05:14;;;;;;;11.40;8.75;;;12.90;87.60;;;;;;4899297;29;20028;-35
2022/10/31 06:07:39;;;;;;;11.07;9.15;;;12.80;87.50;;;;;;4899339;29;20031;-35
2022/10/31 06:10:07;;;;;;;12.05;9.05;;;12.90;87.40;;;;;;4899396;29;20105;-33
2022/10/31 06:12:37;;;;;;;13.10;9.60;;;12.90;87.40;;;;;;4899390;29;20040;-35
2022/10/31 06:15:06;;;;;;;15.13;9.95;;;12.90;87.40;;;;;;4899307;29;20028;-34
2022/10/31 06:17:33;;;;;;;12.35;9.40;;;12.90;87.40;;;;;;4899256;29;20029;-35
2022/10/31 06:19:59;;;;;;;14.82;8.90;;;12.90;87.40;;;;;;4899195;29;20484;-35
2022/10/31 06:22:24;;;;;;;14.10;9.35;;;12.80;87.40;;;;;;4899161;29;20025;-34
2022/10/31 06:24:50;;;;;;;13.10;9.65;;;12.80;87.50;;;;;;4898570;29;20080;-35
2022/10/31 06:27:15;;;;;;;14.82;9.27;;;12.80;87.60;;;;;;4899189;29;20063;-34
2022/10/31 06:29:41;;;;;;;12.98;9.48;;;12.70;87.70;;;;;;4899160;29;20489;-36
2022/10/31 06:32:10;;;;;;;12.18;10.07;;;12.70;87.70;;;;;;4899108;29;20040;-34
2022/10/31 06:34:35;;;;;;;13.40;9.50;;;12.70;87.80;;;;;;4899424;29;20032;-33
2022/10/31 06:37:01;;;;;;;16.05;10.48;;;12.60;87.80;;;;;;4882703;29;20142;-35
2022/10/31 06:39:26;;;;;;;16.10;10.73;;;12.60;87.90;;;;;;4899581;29;20485;-33
2022/10/31 06:41:52;;;;;;;13.95;9.65;;;12.60;87.90;;;;;;4899584;29;20032;-36
2022/10/31 06:44:18;;;;;;;15.63;10.60;;;12.60;88.00;;;;;;4899514;29;20497;-32
2022/10/31 06:46:45;;;;;;;12.90;9.35;;;12.60;88.00;;;;;;4899416;29;20557;-34
2022/10/31 06:49:11;;;;;;;14.10;10.30;;;12.60;88.00;;;;;;4899022;29;20064;-34
2022/10/31 06:51:36;;;;;;;15.82;10.15;;;12.60;88.00;;;;;;4898812;29;20091;-33
2022/10/31 06:54:02;;;;;;;18.33;11.07;;;12.60;88.00;;;;;;4898910;29;20059;-28
2022/10/31 06:56:27;;;;;;;15.88;10.27;;;12.60;88.00;;;;;;4899068;29;20116;-28
2022/10/31 06:58:53;;;;;;;13.00;10.38;;;12.60;88.00;;;;;;4898767;29;20035;-40
2022/10/31 07:01:18;;;;;;;14.10;9.75;;;12.60;88.10;;;;;;4881384;29;20040;-34
2022/10/31 07:03:44;;;;;;;13.60;10.63;;;12.60;88.20;;;;;;4898386;29;20039;-34
2022/10/31 07:06:10;;;;;;;16.05;10.20;;;12.60;88.10;;;;;;4898357;29;20029;-32
2022/10/31 07:08:35;;;;;;;17.00;11.18;;;12.60;88.00;;;;;;4898218;29;20032;-31
2022/10/31 07:11:01;;;;;;;17.77;10.82;;;12.60;88.10;;;;;;4898129;29;20029;-29
2022/10/31 07:13:26;;;;;;;12.35;10.32;;;12.60;88.10;;;;;;4898191;29;20044;-29
2022/10/31 07:15:54;;;;;;;17.45;10.35;;;12.60;88.10;;;;;;4898628;29;20345;-28
2022/10/31 07:18:20;;;;;;;15.70;10.32;;;12.60;88.10;;;;;;4898484;29;20413;-28
2022/10/31 07:20:46;;;;;;;15.73;10.27;;;12.70;88.20;;;;;;4898665;29;20412;-29
2022/10/31 07:23:13;;;;;;;14.38;10.10;;;12.70;88.20;;;;;;4898298;29;20029;-29
2022/10/31 07:25:41;;;;;;;14.18;9.95;;;12.70;88.20;;;;;;4898298;29;20487;-30
2022/10/31 07:28:07;;;;;;;16.90;9.85;;;12.70;88.10;;;;;;4898386;29;20029;-30
2022/10/31 07:30:33;;;;;;;12.90;10.00;;;12.70;88.10;;;;;;4898345;29;20072;-32
2022/10/31 07:32:59;;;;;;;13.70;9.77;;;12.80;88.00;;;;;;4898527;29;20075;-30
2022/10/31 07:35:27;;;;;;;14.80;9.98;;;12.90;88.10;;;;;;4898053;29;20507;-30
2022/10/31 07:37:54;;;;;;;14.90;10.75;;;13.00;88.00;;;;;;4897613;29;20040;-34
2022/10/31 07:40:21;;;;;;;13.25;10.27;;;13.10;87.90;;;;;;4898274;29;20066;-33
2022/10/31 07:42:48;;;;;;;14.15;10.02;;;13.10;87.90;;;;;;4898239;29;20035;-34
2022/10/31 07:45:17;;;;;;;14.20;10.25;;;13.20;88.00;;;;;;4898398;29;20644;-35
2022/10/31 07:47:48;;;;;;;14.98;9.65;;;13.20;87.90;;;;;;4898310;29;20043;-35
2022/10/31 07:50:20;;;;;;;14.82;9.50;;;13.30;87.90;;;;;;4898443;29;20051;-35
2022/10/31 07:52:46;;;;;;;12.07;9.38;;;13.30;87.90;;;;;;4898260;29;20044;-30
2022/10/31 07:55:13;;;;;;;13.80;10.00;;;13.40;87.90;;;;;;4898217;29;20449;-39
2022/10/31 07:57:38;;;;;;;12.60;9.43;;;13.40;87.90;;;;;;4898227;29;20025;-39
2022/10/31 08:00:09;;;;;;;15.88;10.00;;;13.50;87.80;;;;;;4897743;29;20596;-39
2022/10/31 08:02:35;;;;;;;14.25;9.90;;;13.60;87.80;;;;;;4898192;29;20029;-36
2022/10/31 08:05:01;;;;;;;13.88;9.80;;;13.60;87.70;;;;;;4897967;29;20054;-39
2022/10/31 08:07:28;;;;;;;13.48;9.82;;;13.70;87.60;;;;;;4898098;29;20392;-32
2022/10/31 08:09:55;;;;;;;12.43;9.63;;;13.80;87.60;;;;;;4897884;29;20036;-30
2022/10/31 08:12:20;;;;;;;11.68;9.05;;;13.80;87.60;;;;;;4897653;29;20377;-29
2022/10/31 08:14:46;;;;;;;12.02;9.38;;;13.90;87.50;;;;;;4897580;29;20056;-28
2022/10/31 08:17:12;;;;;;;13.77;9.73;;;14.00;87.40;;;;;;4897922;29;20412;-34
2022/10/31 08:19:37;;;;;;;11.82;9.13;;;14.10;87.50;;;;;;4897696;29;20079;-41
2022/10/31 08:22:03;;;;;;;11.65;9.07;;;14.10;87.40;;;;;;4897675;29;20033;-33
2022/10/31 08:24:29;;;;;;;15.23;9.60;;;14.10;87.20;;;;;;4897398;29;20033;-33
2022/10/31 08:26:54;;;;;;;12.98;9.35;;;14.20;87.20;;;;;;4897461;29;20614;-30
2022/10/31 08:29:20;;;;;;;14.50;9.57;;;14.20;87.20;;;;;;4897480;29;20036;-35
2022/10/31 08:31:45;;;;;;;16.67;10.73;;;14.20;87.10;;;;;;4897478;29;20123;-29
2022/10/31 08:34:11;;;;;;;13.60;10.43;;;14.30;87.10;;;;;;4897360;29;20466;-33
2022/10/31 08:36:36;;;;;;;13.68;10.38;;;14.30;87.10;;;;;;4897432;29;20033;-32
2022/10/31 08:39:03;;;;;;;14.68;10.02;;;14.30;87.00;;;;;;4897266;29;20028;-29
2022/10/31 08:41:29;;;;;;;13.27;10.35;;;14.30;87.00;;;;;;4897204;29;20092;-33
2022/10/31 08:43:54;;;;;;;13.48;9.73;;;14.30;87.00;;;;;;4897327;29;20064;-33
2022/10/31 08:46:20;;;;;;;13.00;9.75;;;14.40;87.00;;;;;;4897422;29;20088;-35
2022/10/31 08:48:49;;;;;;;12.38;9.77;;;14.40;87.00;;;;;;4897047;29;20108;-37
2022/10/31 08:51:14;;;;;;;13.30;9.68;;;14.40;86.90;;;;;;4897221;29;20065;-31
2022/10/31 08:53:40;;;;;;;14.82;9.77;;;14.50;86.90;;;;;;4897303;29;20036;-32
2022/10/31 08:56:06;;;;;;;13.40;9.10;;;14.50;86.90;;;;;;4897115;29;20438;-32
2022/10/31 08:58:31;;;;;;;12.88;10.15;;;14.60;86.90;;;;;;4897011;29;20036;-27
2022/10/31 09:01:00;;;;;;;11.65;9.52;;;14.60;86.80;;;;;;4897145;29;20446;-32
2022/10/31 09:03:27;;;;;;;13.55;9.02;;;14.70;86.70;;;;;;4897150;29;20330;-32
2022/10/31 09:05:58;;;;;;;13.02;9.40;;;14.80;86.60;;;;;;4897427;29;20112;-31
2022/10/31 09:08:24;;;;;;;13.93;9.52;;;14.90;86.40;;;;;;4897240;29;20021;-29
2022/10/31 09:10:50;;;;;;;11.80;8.80;;;15.00;86.30;;;;;;4897210;29;20036;-30
2022/10/31 09:13:18;;;;;;;12.73;9.30;;;15.10;86.20;;;;;;4897079;29;20025;-31
2022/10/31 09:15:46;;;;;;;11.85;8.65;;;15.10;86.00;;;;;;4897202;29;20033;-35
2022/10/31 09:18:15;;;;;;;11.38;9.05;;;15.20;86.00;;;;;;4897141;29;20033;-30
2022/10/31 09:20:42;;;;;;;11.05;8.32;;;15.20;85.90;;;;;;4897136;29;20032;-32
2022/10/31 09:23:16;;;;;;;11.50;8.40;;;15.30;85.90;;;;;;4897045;29;20028;-30
2022/10/31 09:25:42;;;;;;;9.82;7.80;;;15.30;85.80;;;;;;4896934;29;20393;-30
2022/10/31 09:28:13;;;;;;;9.98;7.90;;;15.40;85.70;;;;;;4897158;29;20033;-34
2022/10/31 09:30:39;;;;;;;12.65;7.80;;;15.40;86.20;;;;;;4896894;29;20080;-33
2022/10/31 09:33:12;;;;;;;12.65;8.57;;;15.50;85.60;;;;;;4896998;29;20424;-32
2022/10/31 09:35:39;;;;;;;12.30;7.70;;;15.60;85.50;;;;;;4896871;29;20025;-30
2022/10/31 09:38:16;;;;;;;9.10;7.30;;;15.60;85.40;;;;;;4896837;29;20735;-32
2022/10/31 09:40:43;;;;;;;11.30;7.80;;;15.70;85.30;;;;;;4896784;29;20029;-28
2022/10/31 09:43:43;;;;;;;12.63;8.70;;;15.70;85.20;;;;;;4879878;29;20021;-35
2022/10/31 09:46:47;;;;;;;11.10;8.52;;;15.80;85.10;;;;;;4896705;29;20032;-32
2022/10/31 09:49:34;;;;;;;11.75;8.15;;;15.80;84.90;;;;;;4890703;29;20039;-31
2022/10/31 09:52:30;;;;;;;12.57;8.43;;;15.90;84.90;;;;;;4896596;29;20037;-31
2022/10/31 09:55:13;;;;;;;10.30;8.23;;;15.90;84.90;;;;;;4896626;29;20422;-33
2022/10/31 09:57:41;;;;;;;11.88;7.82;;;16.00;84.80;;;;;;4896712;29;20641;-31
2022/10/31 10:00:13;;;;;;;12.77;8.23;;;16.00;84.70;;;;;;4898142;29;20126;-29
2022/10/31 10:02:41;;;;;;;14.27;8.73;;;16.10;84.70;;;;;;4900224;29;20108;-34
2022/10/31 10:05:13;;;;;;;14.43;9.10;;;16.10;84.60;;;;;;4900102;29;20040;-32
2022/10/31 10:08:02;;;;;;;12.48;9.10;;;16.10;84.60;;;;;;4900020;29;20033;-30
2022/10/31 10:10:40;;;;;;;12.23;9.30;;;16.20;84.70;;;;;;4900040;29;20040;-30
2022/10/31 10:13:17;;;;;;;14.32;8.93;;;16.20;84.60;;;;;;4900057;29;20036;-34
2022/10/31 10:15:54;;;;;;;13.05;9.52;;;16.30;84.60;;;;;;4900027;29;20347;-33
2022/10/31 10:18:41;;;;;;;12.45;9.18;;;16.30;84.50;;;;;;4900214;29;20021;-33
2022/10/31 10:21:37;;;;;;;13.35;9.48;;;16.40;84.40;;;;;;4882742;29;20025;-30
2022/10/31 10:24:15;;;;;;;14.70;9.55;;;16.50;84.40;;;;;;4899717;29;20044;-31
2022/10/31 10:26:52;;;;;;;16.95;10.07;;;16.50;84.80;;;;;;4899678;29;20060;-34
2022/10/31 10:29:37;;;;;;;12.77;9.45;;;16.60;84.20;;;;;;4899632;29;20062;-30
2022/10/31 10:32:18;;;;;;;17.27;9.77;;;16.50;84.20;;;;;;4899593;29;20028;-33
2022/10/31 10:35:02;;;;;;;13.65;9.05;;;16.60;84.30;;;;;;4899887;29;20036;-34
2022/10/31 10:37:34;;;;;;;15.43;10.48;;;16.60;84.30;;;;;;4899590;29;20428;-42
2022/10/31 10:40:21;;;;;;;14.68;10.63;;;16.60;84.30;;;;;;4899729;29;20028;-34
2022/10/31 10:43:23;;;;;;;15.57;10.73;;;16.60;84.40;;;;;;4899551;29;20037;-35
2022/10/31 10:48:52;;;;;;;16.33;10.70;;;16.60;84.30;;;;;;4899758;29;20044;-36
2022/10/31 10:51:27;;;;;;;16.02;10.25;;;16.60;84.40;;;;;;4882439;29;20032;-34
2022/10/31 10:54:13;;;;;;;15.00;10.30;;;16.60;84.40;;;;;;4899325;29;20115;-35
2022/10/31 10:56:58;;;;;;;14.45;9.50;;;16.60;84.40;;;;;;4899439;29;20020;-35
2022/10/31 10:59:23;;;;;;;15.57;10.02;;;16.70;84.40;;;;;;4899087;29;20051;-35
2022/10/31 11:01:51;;;;;;;17.88;10.00;;;16.70;84.30;;;;;;4882560;29;20540;-35
2022/10/31 11:04:28;;;;;;;16.00;10.40;;;16.80;84.20;;;;;;4899255;29;20029;-36
2022/10/31 11:07:11;;;;;;;14.30;9.73;;;17.00;84.10;;;;;;4899272;29;20464;-37
2022/10/31 11:09:37;;;;;;;15.23;10.15;;;17.10;83.90;;;;;;4899257;29;20067;-34
2022/10/31 11:12:19;;;;;;;15.25;9.40;;;17.10;83.70;;;;;;4898919;29;20060;-35
2022/10/31 11:14:54;;;;;;;16.33;10.00;;;17.30;83.60;;;;;;4898943;29;20123;-35
2022/10/31 11:17:29;;;;;;;13.48;8.50;;;17.40;83.50;;;;;;4898806;29;20036;-34
2022/10/31 11:20:28;;;;;;;13.65;8.75;;;17.40;83.10;;;;;;4899006;29;20029;-36
2022/10/31 11:23:18;;;;;;;12.60;8.45;;;17.50;82.90;;;;;;4891298;29;20037;-35
2022/10/31 11:26:18;;;;;;;17.17;10.38;;;17.50;82.70;;;;;;4899004;29;20032;-35
2022/10/31 11:28:43;;;;;;;12.27;8.88;;;17.50;82.60;;;;;;4898619;29;20052;-34
2022/10/31 11:31:13;;;;;;;17.92;10.40;;;17.50;82.50;;;;;;4898636;29;20059;-34
2022/10/31 11:33:46;;;;;;;12.85;9.20;;;17.50;82.50;;;;;;4898777;29;20040;-34
2022/10/31 11:36:27;;;;;;;14.25;10.20;;;17.60;82.50;;;;;;4898491;29;20488;-35
2022/10/31 11:38:53;;;;;;;15.98;9.90;;;17.60;82.50;;;;;;4898461;29;20028;-34
2022/10/31 11:41:29;;;;;;;17.30;10.25;;;17.60;82.50;;;;;;4898385;29;20025;-37
2022/10/31 11:44:17;;;;;;;13.30;9.57;;;17.60;82.40;;;;;;4898505;29;20115;-36
2022/10/31 11:46:52;;;;;;;12.73;8.43;;;17.60;82.30;;;;;;4898466;29;20097;-35
2022/10/31 11:49:25;;;;;;;16.90;9.93;;;17.60;82.20;;;;;;4898423;29;20048;-35
2022/10/31 11:51:54;;;;;;;15.23;9.70;;;17.60;82.20;;;;;;4898313;29;20035;-36
2022/10/31 11:54:32;;;;;;;13.85;8.60;;;17.50;82.10;;;;;;4898314;29;20515;-34
2022/10/31 11:56:58;;;;;;;11.48;7.70;;;17.50;82.10;;;;;;4881319;29;20032;-37
2022/10/31 11:59:29;;;;;;;13.77;8.65;;;17.60;82.10;;;;;;4897918;29;20024;-35
2022/10/31 12:01:56;;;;;;;15.20;9.55;;;17.60;82.00;;;;;;4898117;29;20578;-36
2022/10/31 12:04:39;;;;;;;16.88;10.30;;;17.60;82.00;;;;;;4898395;29;20028;-35
2022/10/31 12:07:05;;;;;;;14.32;9.77;;;17.70;81.90;;;;;;4881303;29;20495;-34
2022/10/31 12:09:34;;;;;;;11.77;8.85;;;17.70;81.90;;;;;;4897991;29;20024;-35
2022/10/31 12:12:09;;;;;;;13.70;10.18;;;17.70;81.90;;;;;;4898215;29;20103;-35
2022/10/31 12:14:47;;;;;;;15.70;10.05;;;17.70;81.90;;;;;;4897810;29;20025;-35
2022/10/31 12:17:30;;;;;;;14.80;9.52;;;17.70;81.80;;;;;;4897981;29;20400;-34
2022/10/31 12:20:28;;;;;;;17.85;10.70;;;17.80;81.80;;;;;;4881082;29;20378;-36
2022/10/31 12:23:24;;;;;;;15.55;10.27;;;17.90;81.80;;;;;;4897405;29;20031;-35
2022/10/31 12:26:11;;;;;;;14.38;9.80;;;18.00;81.60;;;;;;4897624;29;20021;-33
2022/10/31 12:29:21;;;;;;;11.90;8.77;;;18.10;81.60;;;;;;4897858;29;20110;-42
2022/10/31 12:32:17;;;;;;;10.32;7.03;;;18.10;81.30;;;;;;4858228;29;20037;-36
2022/10/31 12:34:55;;;;;;;10.02;7.25;;;18.10;81.30;;;;;;4857964;29;20041;-35
2022/10/31 12:37:43;;;;;;;12.60;7.95;;;18.10;81.20;;;;;;4889759;29;20079;-34
2022/10/31 12:40:38;;;;;;;19.30;10.65;;;18.10;81.10;;;;;;4897644;29;20031;-34
2022/10/31 12:43:42;;;;;;;18.15;11.07;;;18.10;81.20;;;;;;4897390;29;20028;-35
2022/10/31 12:46:14;;;;;;;;;;;18.10;81.20;;;;;;4897968;29;20043;-35
2022/10/31 12:49:17;;;;;;;18.20;9.82;;;18.10;81.20;;;;;;4897434;29;19908;-34
2022/10/31 12:51:57;;;;;;;15.05;9.98;;;18.10;81.20;;;;;;4897382;29;20028;-35
2022/10/31 12:54:28;;;;;;;16.05;10.05;;;18.20;81.10;;;;;;4897384;29;20461;-35
2022/10/31 12:57:21;;;;;;;17.70;11.77;;;18.20;81.00;;;;;;4897372;29;20056;-36
2022/10/31 12:59:56;;;;;;;15.57;10.15;;;18.20;80.90;;;;;;4897112;29;20049;-36
2022/10/31 13:02:31;;;;;;;18.60;11.48;;;18.30;81.00;;;;;;4897423;29;20647;-35